sensor_id;sensor_type;location;lat;lon;timestamp;pressure;altitude;pressure_sealevel;temperature;humidity
804;BME280;25687;49.976;8.240;2023-05-06T00:01:50;100126.03;;;13.46;100.00
804;BME280;25687;49.976;8.240;2023-05-06T00:04:15;100123.34;;;13.48;100.00
804;BME280;25687;49.976;8.240;2023-05-06T00:06:40;100123.66;;;13.43;100.00
804;BME280;25687;49.976;8.240;2023-05-06T00:09:06;100122.03;;;13.42;100.00
804;BME280;25687;49.976;8.240;2023-05-06T00:11:32;100114.63;;;13.36;100.00
804;BME280;25687;49.976;8.240;2023-05-06T00:13:57;100115.84;;;13.30;100.00
804;BME280;25687;49.976;8.240;2023-05-06T00:16:22;100113.38;;;13.29;100.00
804;BME280;25687;49.976;8.240;2023-05-06T00:18:48;100109.94;;;13.28;100.00
804;BME280;25687;49.976;8.240;2023-05-06T00:21:13;100100.34;;;13.17;100.00
804;BME280;25687;49.976;8.240;2023-05-06T00:23:38;100097.03;;;13.15;100.00
804;BME280;25687;49.976;8.240;2023-05-06T00:26:03;100100.00;;;13.09;100.00
804;BME280;25687;49.976;8.240;2023-05-06T00:28:29;100094.84;;;13.09;100.00
804;BME280;25687;49.976;8.240;2023-05-06T00:30:54;100092.44;;;13.06;100.00
804;BME280;25687;49.976;8.240;2023-05-06T00:33:19;100093.28;;;13.06;100.00
804;BME280;25687;49.976;8.240;2023-05-06T00:35:45;100093.28;;;13.06;100.00
804;BME280;25687;49.976;8.240;2023-05-06T00:38:11;100101.63;;;12.97;100.00
804;BME280;25687;49.976;8.240;2023-05-06T00:40:38;100107.09;;;12.93;100.00
804;BME280;25687;49.976;8.240;2023-05-06T00:43:03;100106.38;;;12.90;100.00
804;BME280;25687;49.976;8.240;2023-05-06T00:45:29;100109.97;;;12.88;100.00
804;BME280;25687;49.976;8.240;2023-05-06T00:47:55;100112.72;;;12.85;100.00
804;BME280;25687;49.976;8.240;2023-05-06T00:50:20;100097.63;;;12.79;100.00
804;BME280;25687;49.976;8.240;2023-05-06T00:52:46;100100.59;;;12.72;100.00
804;BME280;25687;49.976;8.240;2023-05-06T00:55:12;100100.06;;;12.67;100.00
804;BME280;25687;49.976;8.240;2023-05-06T00:57:38;100101.84;;;12.67;100.00
804;BME280;25687;49.976;8.240;2023-05-06T01:00:05;100104.34;;;12.54;100.00
804;BME280;25687;49.976;8.240;2023-05-06T01:02:31;100101.34;;;12.47;100.00
804;BME280;25687;49.976;8.240;2023-05-06T01:04:57;100102.00;;;12.36;100.00
804;BME280;25687;49.976;8.240;2023-05-06T01:07:29;100097.59;;;12.24;100.00
804;BME280;25687;49.976;8.240;2023-05-06T01:10:12;100093.19;;;12.11;100.00
804;BME280;25687;49.976;8.240;2023-05-06T01:15:23;100106.94;;;12.12;100.00
804;BME280;25687;49.976;8.240;2023-05-06T01:17:52;100101.94;;;12.09;100.00
804;BME280;25687;49.976;8.240;2023-05-06T01:20:18;100098.06;;;11.87;100.00
804;BME280;25687;49.976;8.240;2023-05-06T01:22:45;100104.69;;;11.91;100.00
804;BME280;25687;49.976;8.240;2023-05-06T01:25:18;100095.75;;;11.83;100.00
804;BME280;25687;49.976;8.240;2023-05-06T01:27:44;100101.94;;;11.80;100.00
804;BME280;25687;49.976;8.240;2023-05-06T01:30:09;100102.09;;;11.77;100.00
804;BME280;25687;49.976;8.240;2023-05-06T01:32:57;100096.94;;;11.62;100.00
804;BME280;25687;49.976;8.240;2023-05-06T01:38:16;100099.34;;;11.51;100.00
804;BME280;25687;49.976;8.240;2023-05-06T01:40:49;100097.47;;;11.53;100.00
804;BME280;25687;49.976;8.240;2023-05-06T01:43:18;100100.25;;;11.50;100.00
804;BME280;25687;49.976;8.240;2023-05-06T01:45:46;100101.25;;;11.48;100.00
804;BME280;25687;49.976;8.240;2023-05-06T01:48:21;100108.34;;;11.44;100.00
804;BME280;25687;49.976;8.240;2023-05-06T01:50:47;100109.16;;;11.44;100.00
804;BME280;25687;49.976;8.240;2023-05-06T01:53:12;100114.56;;;11.40;100.00
804;BME280;25687;49.976;8.240;2023-05-06T01:55:37;100114.19;;;11.32;100.00
804;BME280;25687;49.976;8.240;2023-05-06T01:58:03;100123.75;;;11.29;100.00
804;BME280;25687;49.976;8.240;2023-05-06T02:00:28;100121.50;;;11.23;100.00
804;BME280;25687;49.976;8.240;2023-05-06T02:02:54;100119.34;;;11.32;100.00
804;BME280;25687;49.976;8.240;2023-05-06T02:05:19;100123.38;;;11.36;100.00
804;BME280;25687;49.976;8.240;2023-05-06T02:07:44;100122.97;;;11.27;100.00
804;BME280;25687;49.976;8.240;2023-05-06T02:10:10;100115.81;;;11.18;100.00
804;BME280;25687;49.976;8.240;2023-05-06T02:12:35;100122.31;;;11.09;100.00
804;BME280;25687;49.976;8.240;2023-05-06T02:15:00;100119.94;;;11.21;100.00
804;BME280;25687;49.976;8.240;2023-05-06T02:17:26;100118.84;;;11.25;100.00
804;BME280;25687;49.976;8.240;2023-05-06T02:19:51;100121.41;;;11.25;100.00
804;BME280;25687;49.976;8.240;2023-05-06T02:22:16;100124.94;;;11.24;100.00
804;BME280;25687;49.976;8.240;2023-05-06T02:24:41;100134.13;;;11.28;100.00
804;BME280;25687;49.976;8.240;2023-05-06T02:27:07;100130.00;;;11.25;100.00
804;BME280;25687;49.976;8.240;2023-05-06T02:29:32;100132.81;;;11.21;100.00
804;BME280;25687;49.976;8.240;2023-05-06T02:31:57;100131.09;;;11.21;100.00
804;BME280;25687;49.976;8.240;2023-05-06T02:34:23;100133.06;;;11.16;100.00
804;BME280;25687;49.976;8.240;2023-05-06T02:36:48;100136.28;;;11.05;100.00
804;BME280;25687;49.976;8.240;2023-05-06T02:39:13;100133.69;;;11.05;100.00
804;BME280;25687;49.976;8.240;2023-05-06T02:41:39;100134.25;;;11.10;100.00
804;BME280;25687;49.976;8.240;2023-05-06T02:44:04;100131.38;;;11.01;100.00
804;BME280;25687;49.976;8.240;2023-05-06T02:46:30;100128.59;;;11.04;100.00
804;BME280;25687;49.976;8.240;2023-05-06T02:48:56;100134.94;;;10.98;100.00
804;BME280;25687;49.976;8.240;2023-05-06T02:51:22;100128.28;;;10.94;100.00
804;BME280;25687;49.976;8.240;2023-05-06T02:53:47;100135.38;;;10.90;100.00
804;BME280;25687;49.976;8.240;2023-05-06T02:56:12;100129.16;;;10.78;100.00
804;BME280;25687;49.976;8.240;2023-05-06T02:58:37;100130.97;;;10.76;100.00
804;BME280;25687;49.976;8.240;2023-05-06T03:01:03;100128.41;;;10.76;100.00
804;BME280;25687;49.976;8.240;2023-05-06T03:03:28;100133.63;;;10.59;100.00
804;BME280;25687;49.976;8.240;2023-05-06T03:05:53;100129.16;;;10.62;100.00
804;BME280;25687;49.976;8.240;2023-05-06T03:08:18;100127.34;;;10.64;100.00
804;BME280;25687;49.976;8.240;2023-05-06T03:10:44;100127.16;;;10.68;100.00
804;BME280;25687;49.976;8.240;2023-05-06T03:13:09;100126.59;;;10.62;100.00
804;BME280;25687;49.976;8.240;2023-05-06T03:15:34;100130.16;;;10.60;100.00
804;BME280;25687;49.976;8.240;2023-05-06T03:18:00;100133.53;;;10.60;100.00
804;BME280;25687;49.976;8.240;2023-05-06T03:20:25;100134.16;;;10.49;100.00
804;BME280;25687;49.976;8.240;2023-05-06T03:22:52;100139.84;;;10.39;100.00
804;BME280;25687;49.976;8.240;2023-05-06T03:25:18;100132.06;;;10.40;100.00
804;BME280;25687;49.976;8.240;2023-05-06T03:27:43;100137.38;;;10.37;100.00
804;BME280;25687;49.976;8.240;2023-05-06T03:30:09;100136.91;;;10.29;100.00
804;BME280;25687;49.976;8.240;2023-05-06T03:32:34;100135.91;;;10.31;100.00
804;BME280;25687;49.976;8.240;2023-05-06T03:34:59;100141.34;;;10.43;100.00
804;BME280;25687;49.976;8.240;2023-05-06T03:37:25;100142.84;;;10.47;100.00
804;BME280;25687;49.976;8.240;2023-05-06T03:39:50;100140.19;;;10.48;100.00
804;BME280;25687;49.976;8.240;2023-05-06T03:42:15;100139.53;;;10.45;100.00
804;BME280;25687;49.976;8.240;2023-05-06T03:44:40;100143.84;;;10.44;100.00
804;BME280;25687;49.976;8.240;2023-05-06T03:47:06;100149.97;;;10.42;100.00
804;BME280;25687;49.976;8.240;2023-05-06T03:49:31;100147.81;;;10.50;100.00
804;BME280;25687;49.976;8.240;2023-05-06T03:51:56;100147.34;;;10.43;100.00
804;BME280;25687;49.976;8.240;2023-05-06T03:54:21;100147.09;;;10.30;100.00
804;BME280;25687;49.976;8.240;2023-05-06T03:56:47;100151.94;;;10.37;100.00
804;BME280;25687;49.976;8.240;2023-05-06T03:59:12;100138.03;;;10.41;100.00
804;BME280;25687;49.976;8.240;2023-05-06T04:01:37;100148.31;;;10.41;100.00
804;BME280;25687;49.976;8.240;2023-05-06T04:04:03;100149.97;;;10.42;100.00
804;BME280;25687;49.976;8.240;2023-05-06T04:06:28;100144.66;;;10.45;100.00
804;BME280;25687;49.976;8.240;2023-05-06T04:08:53;100150.81;;;10.42;100.00
804;BME280;25687;49.976;8.240;2023-05-06T04:11:19;100150.97;;;10.39;100.00
804;BME280;25687;49.976;8.240;2023-05-06T04:13:44;100151.13;;;10.36;100.00
804;BME280;25687;49.976;8.240;2023-05-06T04:16:09;100155.72;;;10.29;100.00
804;BME280;25687;49.976;8.240;2023-05-06T04:18:36;100153.91;;;10.31;100.00
804;BME280;25687;49.976;8.240;2023-05-06T04:21:01;100149.38;;;10.37;100.00
804;BME280;25687;49.976;8.240;2023-05-06T04:23:27;100150.13;;;10.39;100.00
804;BME280;25687;49.976;8.240;2023-05-06T04:25:52;100155.19;;;10.40;100.00
804;BME280;25687;49.976;8.240;2023-05-06T04:28:17;100151.91;;;10.38;100.00
804;BME280;25687;49.976;8.240;2023-05-06T04:30:43;100154.13;;;10.44;100.00
804;BME280;25687;49.976;8.240;2023-05-06T04:33:09;100171.16;;;10.47;100.00
804;BME280;25687;49.976;8.240;2023-05-06T04:35:34;100166.50;;;10.54;100.00
804;BME280;25687;49.976;8.240;2023-05-06T04:38:00;100169.16;;;10.52;100.00
804;BME280;25687;49.976;8.240;2023-05-06T04:40:28;100159.44;;;10.57;100.00
804;BME280;25687;49.976;8.240;2023-05-06T04:42:54;100166.50;;;10.70;100.00
804;BME280;25687;49.976;8.240;2023-05-06T04:45:19;100168.56;;;10.79;100.00
804;BME280;25687;49.976;8.240;2023-05-06T04:47:44;100158.53;;;10.90;100.00
804;BME280;25687;49.976;8.240;2023-05-06T04:50:10;100155.44;;;11.00;100.00
804;BME280;25687;49.976;8.240;2023-05-06T04:52:35;100161.31;;;11.18;100.00
804;BME280;25687;49.976;8.240;2023-05-06T04:55:02;100163.78;;;11.35;100.00
804;BME280;25687;49.976;8.240;2023-05-06T04:57:28;100160.81;;;11.57;100.00
804;BME280;25687;49.976;8.240;2023-05-06T04:59:53;100164.13;;;11.74;100.00
804;BME280;25687;49.976;8.240;2023-05-06T05:02:18;100169.88;;;11.93;100.00
804;BME280;25687;49.976;8.240;2023-05-06T05:04:44;100170.34;;;12.00;100.00
804;BME280;25687;49.976;8.240;2023-05-06T05:07:09;100178.47;;;12.08;100.00
804;BME280;25687;49.976;8.240;2023-05-06T05:09:34;100171.19;;;12.30;100.00
804;BME280;25687;49.976;8.240;2023-05-06T05:12:01;100181.63;;;12.28;100.00
804;BME280;25687;49.976;8.240;2023-05-06T05:14:26;100177.66;;;12.37;100.00
804;BME280;25687;49.976;8.240;2023-05-06T05:16:51;100182.41;;;12.57;100.00
804;BME280;25687;49.976;8.240;2023-05-06T05:19:17;100177.88;;;12.61;100.00
804;BME280;25687;49.976;8.240;2023-05-06T05:21:42;100181.63;;;12.84;100.00
804;BME280;25687;49.976;8.240;2023-05-06T05:24:07;100179.78;;;12.86;100.00
804;BME280;25687;49.976;8.240;2023-05-06T05:26:33;100184.34;;;12.96;100.00
804;BME280;25687;49.976;8.240;2023-05-06T05:28:58;100186.38;;;13.05;100.00
804;BME280;25687;49.976;8.240;2023-05-06T05:31:23;100187.22;;;13.18;100.00
804;BME280;25687;49.976;8.240;2023-05-06T05:33:48;100181.47;;;13.28;100.00
804;BME280;25687;49.976;8.240;2023-05-06T05:36:14;100181.63;;;13.39;100.00
804;BME280;25687;49.976;8.240;2023-05-06T05:38:40;100184.31;;;13.37;100.00
804;BME280;25687;49.976;8.240;2023-05-06T05:41:05;100184.88;;;13.28;100.00
804;BME280;25687;49.976;8.240;2023-05-06T05:43:31;100188.63;;;13.10;100.00
804;BME280;25687;49.976;8.240;2023-05-06T05:45:56;100180.59;;;13.14;100.00
804;BME280;25687;49.976;8.240;2023-05-06T05:48:21;100184.03;;;13.15;100.00
804;BME280;25687;49.976;8.240;2023-05-06T05:50:46;100184.41;;;13.08;100.00
804;BME280;25687;49.976;8.240;2023-05-06T05:53:12;100185.38;;;13.20;100.00
804;BME280;25687;49.976;8.240;2023-05-06T05:55:37;100179.16;;;13.50;100.00
804;BME280;25687;49.976;8.240;2023-05-06T05:58:02;100181.56;;;13.66;100.00
804;BME280;25687;49.976;8.240;2023-05-06T06:00:27;100181.06;;;13.74;100.00
804;BME280;25687;49.976;8.240;2023-05-06T06:02:53;100179.41;;;13.86;100.00
804;BME280;25687;49.976;8.240;2023-05-06T06:05:18;100179.84;;;14.06;100.00
804;BME280;25687;49.976;8.240;2023-05-06T06:07:43;100186.25;;;14.00;100.00
804;BME280;25687;49.976;8.240;2023-05-06T06:10:09;100182.72;;;14.01;100.00
804;BME280;25687;49.976;8.240;2023-05-06T06:12:36;100183.34;;;14.04;100.00
804;BME280;25687;49.976;8.240;2023-05-06T06:15:02;100178.78;;;13.95;100.00
804;BME280;25687;49.976;8.240;2023-05-06T06:17:27;100182.72;;;14.27;100.00
804;BME280;25687;49.976;8.240;2023-05-06T06:19:52;100178.75;;;14.47;100.00
804;BME280;25687;49.976;8.240;2023-05-06T06:22:21;100185.66;;;14.59;100.00
804;BME280;25687;49.976;8.240;2023-05-06T06:24:46;100183.88;;;14.60;100.00
804;BME280;25687;49.976;8.240;2023-05-06T06:27:12;100184.44;;;14.89;100.00
804;BME280;25687;49.976;8.240;2023-05-06T06:29:37;100176.50;;;15.28;100.00
804;BME280;25687;49.976;8.240;2023-05-06T06:32:02;100180.94;;;16.31;100.00
804;BME280;25687;49.976;8.240;2023-05-06T06:34:28;100171.75;;;17.68;100.00
804;BME280;25687;49.976;8.240;2023-05-06T06:36:53;100176.06;;;19.31;100.00
804;BME280;25687;49.976;8.240;2023-05-06T06:39:18;100177.66;;;21.28;92.02
804;BME280;25687;49.976;8.240;2023-05-06T06:41:43;100189.25;;;23.07;76.19
804;BME280;25687;49.976;8.240;2023-05-06T06:44:09;100193.88;;;24.19;62.37
804;BME280;25687;49.976;8.240;2023-05-06T06:46:34;100202.03;;;25.57;52.62
804;BME280;25687;49.976;8.240;2023-05-06T06:48:59;100203.28;;;27.09;47.15
804;BME280;25687;49.976;8.240;2023-05-06T06:51:26;100211.38;;;27.93;44.54
804;BME280;25687;49.976;8.240;2023-05-06T06:53:51;100210.75;;;27.05;45.07
804;BME280;25687;49.976;8.240;2023-05-06T06:56:16;100216.50;;;27.66;45.11
804;BME280;25687;49.976;8.240;2023-05-06T06:58:41;100222.78;;;28.35;41.90
804;BME280;25687;49.976;8.240;2023-05-06T07:01:07;100223.72;;;28.21;41.82
804;BME280;25687;49.976;8.240;2023-05-06T07:03:32;100218.25;;;28.97;39.99
804;BME280;25687;49.976;8.240;2023-05-06T07:05:58;100220.09;;;30.82;36.60
804;BME280;25687;49.976;8.240;2023-05-06T07:08:23;100218.91;;;30.71;34.97
804;BME280;25687;49.976;8.240;2023-05-06T07:10:48;100222.69;;;31.20;35.37
804;BME280;25687;49.976;8.240;2023-05-06T07:13:14;100223.84;;;30.67;35.71
804;BME280;25687;49.976;8.240;2023-05-06T07:15:39;100228.38;;;31.68;34.39
804;BME280;25687;49.976;8.240;2023-05-06T07:18:05;100231.78;;;32.12;33.72
804;BME280;25687;49.976;8.240;2023-05-06T07:20:30;100222.97;;;30.80;36.26
804;BME280;25687;49.976;8.240;2023-05-06T07:22:55;100226.28;;;28.42;40.99
804;BME280;25687;49.976;8.240;2023-05-06T07:25:20;100228.66;;;26.37;48.18
804;BME280;25687;49.976;8.240;2023-05-06T07:27:46;100224.13;;;25.09;56.88
804;BME280;25687;49.976;8.240;2023-05-06T07:30:11;100227.72;;;26.60;50.68
804;BME280;25687;49.976;8.240;2023-05-06T07:32:37;100224.97;;;26.16;50.69
804;BME280;25687;49.976;8.240;2023-05-06T07:35:02;100227.00;;;26.87;50.91
804;BME280;25687;49.976;8.240;2023-05-06T07:37:28;100234.41;;;28.41;44.86
804;BME280;25687;49.976;8.240;2023-05-06T07:39:53;100229.81;;;28.14;45.50
804;BME280;25687;49.976;8.240;2023-05-06T07:42:18;100225.09;;;28.65;42.83
804;BME280;25687;49.976;8.240;2023-05-06T07:44:43;100234.41;;;28.41;45.04
804;BME280;25687;49.976;8.240;2023-05-06T07:47:09;100229.25;;;28.81;42.34
804;BME280;25687;49.976;8.240;2023-05-06T07:49:34;100227.44;;;28.88;43.72
804;BME280;25687;49.976;8.240;2023-05-06T07:51:59;100228.88;;;28.84;43.51
804;BME280;25687;49.976;8.240;2023-05-06T07:54:24;100229.09;;;29.50;43.09
804;BME280;25687;49.976;8.240;2023-05-06T07:56:50;100231.09;;;28.25;42.54
804;BME280;25687;49.976;8.240;2023-05-06T07:59:15;100233.94;;;28.86;42.48
804;BME280;25687;49.976;8.240;2023-05-06T08:01:41;100234.72;;;30.00;39.38
804;BME280;25687;49.976;8.240;2023-05-06T08:04:06;100234.56;;;31.18;37.30
804;BME280;25687;49.976;8.240;2023-05-06T08:06:31;100237.00;;;31.45;35.43
804;BME280;25687;49.976;8.240;2023-05-06T08:08:57;100245.19;;;29.75;37.00
804;BME280;25687;49.976;8.240;2023-05-06T08:11:22;100235.78;;;27.38;41.60
804;BME280;25687;49.976;8.240;2023-05-06T08:13:47;100234.75;;;28.86;39.39
804;BME280;25687;49.976;8.240;2023-05-06T08:16:13;100237.84;;;29.17;38.76
804;BME280;25687;49.976;8.240;2023-05-06T08:18:38;100237.84;;;29.70;39.51
804;BME280;25687;49.976;8.240;2023-05-06T08:21:04;100242.16;;;29.44;39.94
804;BME280;25687;49.976;8.240;2023-05-06T08:23:30;100244.38;;;29.14;38.89
804;BME280;25687;49.976;8.240;2023-05-06T08:25:55;100245.13;;;30.08;37.53
804;BME280;25687;49.976;8.240;2023-05-06T08:28:21;100252.03;;;30.16;36.88
804;BME280;25687;49.976;8.240;2023-05-06T08:30:46;100255.06;;;30.20;36.55
804;BME280;25687;49.976;8.240;2023-05-06T08:33:12;100251.41;;;30.14;36.45
804;BME280;25687;49.976;8.240;2023-05-06T08:35:37;100254.97;;;28.45;39.66
804;BME280;25687;49.976;8.240;2023-05-06T08:38:03;100242.28;;;29.83;37.17
804;BME280;25687;49.976;8.240;2023-05-06T08:40:29;100246.31;;;30.65;36.98
804;BME280;25687;49.976;8.240;2023-05-06T08:42:58;100241.94;;;29.39;37.85
804;BME280;25687;49.976;8.240;2023-05-06T08:45:24;100239.66;;;29.16;39.67
804;BME280;25687;49.976;8.240;2023-05-06T08:47:49;100239.81;;;30.61;36.22
804;BME280;25687;49.976;8.240;2023-05-06T08:50:15;100246.59;;;31.20;34.06
804;BME280;25687;49.976;8.240;2023-05-06T08:52:41;100238.47;;;29.59;37.38
804;BME280;25687;49.976;8.240;2023-05-06T08:55:06;100251.28;;;30.54;35.92
804;BME280;25687;49.976;8.240;2023-05-06T08:57:33;100241.53;;;31.37;36.00
804;BME280;25687;49.976;8.240;2023-05-06T08:59:59;100241.38;;;30.75;35.47
804;BME280;25687;49.976;8.240;2023-05-06T09:02:25;100243.34;;;29.28;37.45
804;BME280;25687;49.976;8.240;2023-05-06T09:04:52;100241.28;;;27.15;40.76
804;BME280;25687;49.976;8.240;2023-05-06T09:07:21;100232.75;;;29.02;37.37
804;BME280;25687;49.976;8.240;2023-05-06T09:09:47;100238.88;;;29.62;38.15
804;BME280;25687;49.976;8.240;2023-05-06T09:12:13;100240.38;;;27.79;39.87
804;BME280;25687;49.976;8.240;2023-05-06T09:14:39;100231.13;;;27.62;40.82
804;BME280;25687;49.976;8.240;2023-05-06T09:17:16;100224.88;;;26.98;40.45
804;BME280;25687;49.976;8.240;2023-05-06T09:19:48;100221.03;;;28.62;39.54
804;BME280;25687;49.976;8.240;2023-05-06T09:22:13;100225.06;;;30.71;35.81
804;BME280;25687;49.976;8.240;2023-05-06T09:24:38;100238.91;;;31.05;34.53
804;BME280;25687;49.976;8.240;2023-05-06T09:27:03;100225.63;;;30.73;33.46
804;BME280;25687;49.976;8.240;2023-05-06T09:29:29;100221.47;;;31.42;34.40
804;BME280;25687;49.976;8.240;2023-05-06T09:31:54;100221.78;;;28.36;38.70
804;BME280;25687;49.976;8.240;2023-05-06T09:34:20;100218.28;;;29.58;35.44
804;BME280;25687;49.976;8.240;2023-05-06T09:36:46;100219.28;;;29.10;35.92
804;BME280;25687;49.976;8.240;2023-05-06T09:39:11;100221.34;;;28.88;36.46
804;BME280;25687;49.976;8.240;2023-05-06T09:41:37;100226.06;;;28.02;38.27
804;BME280;25687;49.976;8.240;2023-05-06T09:44:02;100217.47;;;29.17;35.49
804;BME280;25687;49.976;8.240;2023-05-06T09:46:28;100215.84;;;30.35;35.22
804;BME280;25687;49.976;8.240;2023-05-06T09:48:55;100219.97;;;30.24;33.83
804;BME280;25687;49.976;8.240;2023-05-06T09:51:21;100218.50;;;29.43;35.71
804;BME280;25687;49.976;8.240;2023-05-06T09:53:47;100227.34;;;28.55;36.07
804;BME280;25687;49.976;8.240;2023-05-06T09:56:13;100215.38;;;25.32;42.64
804;BME280;25687;49.976;8.240;2023-05-06T09:58:39;100210.25;;;24.29;51.88
804;BME280;25687;49.976;8.240;2023-05-06T10:01:06;100208.50;;;22.56;67.46
804;BME280;25687;49.976;8.240;2023-05-06T10:03:32;100210.34;;;22.72;64.98
804;BME280;25687;49.976;8.240;2023-05-06T10:06:03;100205.19;;;22.12;73.57
804;BME280;25687;49.976;8.240;2023-05-06T10:08:32;100197.16;;;22.13;71.03
804;BME280;25687;49.976;8.240;2023-05-06T10:10:59;100198.66;;;22.16;70.68
804;BME280;25687;49.976;8.240;2023-05-06T10:13:25;100194.28;;;23.75;61.84
804;BME280;25687;49.976;8.240;2023-05-06T10:15:51;100197.16;;;25.07;54.50
804;BME280;25687;49.976;8.240;2023-05-06T10:18:18;100185.59;;;24.30;56.70
804;BME280;25687;49.976;8.240;2023-05-06T10:20:44;100191.09;;;25.07;58.69
804;BME280;25687;49.976;8.240;2023-05-06T10:23:39;100190.16;;;26.06;46.58
804;BME280;25687;49.976;8.240;2023-05-06T10:26:10;100193.47;;;26.81;42.65
804;BME280;25687;49.976;8.240;2023-05-06T10:28:41;100190.91;;;27.16;43.70
804;BME280;25687;49.976;8.240;2023-05-06T10:31:10;100178.16;;;29.01;39.81
804;BME280;25687;49.976;8.240;2023-05-06T10:33:36;100187.84;;;29.94;34.81
804;BME280;25687;49.976;8.240;2023-05-06T10:38:58;100184.47;;;30.19;36.37
804;BME280;25687;49.976;8.240;2023-05-06T10:41:26;100175.50;;;29.14;38.58
804;BME280;25687;49.976;8.240;2023-05-06T10:43:53;100168.34;;;26.70;43.57
804;BME280;25687;49.976;8.240;2023-05-06T10:46:23;100167.75;;;26.32;45.59
804;BME280;25687;49.976;8.240;2023-05-06T10:51:38;100162.31;;;25.20;51.63
804;BME280;25687;49.976;8.240;2023-05-06T10:56:35;100156.41;;;22.62;66.82
804;BME280;25687;49.976;8.240;2023-05-06T10:59:04;100147.78;;;22.35;64.65
804;BME280;25687;49.976;8.240;2023-05-06T11:01:32;100153.78;;;22.62;69.33
804;BME280;25687;49.976;8.240;2023-05-06T11:04:03;100151.00;;;22.80;69.15
804;BME280;25687;49.976;8.240;2023-05-06T11:06:35;100157.44;;;23.10;63.10
804;BME280;25687;49.976;8.240;2023-05-06T11:09:02;100151.50;;;22.83;57.96
804;BME280;25687;49.976;8.240;2023-05-06T11:14:13;100146.94;;;22.26;66.46
804;BME280;25687;49.976;8.240;2023-05-06T11:16:49;100139.53;;;22.13;56.82
804;BME280;25687;49.976;8.240;2023-05-06T11:19:22;100141.97;;;22.49;65.76
804;BME280;25687;49.976;8.240;2023-05-06T11:21:49;100141.38;;;23.05;58.29
804;BME280;25687;49.976;8.240;2023-05-06T11:24:21;100136.94;;;23.47;55.82
804;BME280;25687;49.976;8.240;2023-05-06T11:26:46;100138.06;;;23.44;49.73
804;BME280;25687;49.976;8.240;2023-05-06T11:29:14;100125.72;;;23.69;56.26
804;BME280;25687;49.976;8.240;2023-05-06T11:31:41;100123.22;;;23.76;49.83
804;BME280;25687;49.976;8.240;2023-05-06T11:34:08;100128.56;;;23.27;58.35
804;BME280;25687;49.976;8.240;2023-05-06T11:36:35;100126.19;;;23.73;55.73
804;BME280;25687;49.976;8.240;2023-05-06T11:39:05;100127.56;;;23.52;53.88
804;BME280;25687;49.976;8.240;2023-05-06T11:41:32;100131.69;;;22.72;54.96
804;BME280;25687;49.976;8.240;2023-05-06T11:43:57;100135.25;;;22.63;58.17
804;BME280;25687;49.976;8.240;2023-05-06T11:46:23;100136.47;;;23.18;59.98
804;BME280;25687;49.976;8.240;2023-05-06T11:48:49;100131.03;;;23.45;57.56
804;BME280;25687;49.976;8.240;2023-05-06T11:51:15;100136.72;;;23.57;53.04
804;BME280;25687;49.976;8.240;2023-05-06T11:53:40;100122.97;;;23.38;54.71
804;BME280;25687;49.976;8.240;2023-05-06T11:56:06;100128.41;;;22.70;56.83
804;BME280;25687;49.976;8.240;2023-05-06T11:58:31;100133.50;;;22.80;58.75
804;BME280;25687;49.976;8.240;2023-05-06T12:01:01;100134.31;;;22.97;59.21
804;BME280;25687;49.976;8.240;2023-05-06T12:03:28;100133.81;;;23.10;59.95
804;BME280;25687;49.976;8.240;2023-05-06T12:05:55;100130.22;;;23.11;61.02
804;BME280;25687;49.976;8.240;2023-05-06T12:08:28;100127.25;;;22.81;61.44
804;BME280;25687;49.976;8.240;2023-05-06T12:11:05;100123.16;;;23.36;58.60
804;BME280;25687;49.976;8.240;2023-05-06T12:13:33;100122.47;;;23.51;57.90
804;BME280;25687;49.976;8.240;2023-05-06T12:16:02;100129.88;;;23.39;58.83
804;BME280;25687;49.976;8.240;2023-05-06T12:18:28;100126.25;;;23.48;63.85
804;BME280;25687;49.976;8.240;2023-05-06T12:20:55;100126.63;;;23.29;60.87
804;BME280;25687;49.976;8.240;2023-05-06T12:23:21;100124.66;;;23.06;60.51
804;BME280;25687;49.976;8.240;2023-05-06T12:25:59;100115.91;;;22.48;63.08
804;BME280;25687;49.976;8.240;2023-05-06T12:28:24;100118.56;;;22.81;66.03
804;BME280;25687;49.976;8.240;2023-05-06T12:30:51;100121.19;;;23.05;62.00
804;BME280;25687;49.976;8.240;2023-05-06T12:33:16;100116.63;;;22.23;66.01
804;BME280;25687;49.976;8.240;2023-05-06T12:35:41;100111.38;;;22.15;67.47
804;BME280;25687;49.976;8.240;2023-05-06T12:38:15;100120.03;;;22.83;62.70
804;BME280;25687;49.976;8.240;2023-05-06T12:40:42;100112.19;;;23.25;57.62
804;BME280;25687;49.976;8.240;2023-05-06T12:43:08;100115.63;;;23.98;60.26
804;BME280;25687;49.976;8.240;2023-05-06T12:45:34;100107.34;;;24.64;52.55
804;BME280;25687;49.976;8.240;2023-05-06T12:48:01;100116.78;;;24.81;52.36
804;BME280;25687;49.976;8.240;2023-05-06T12:50:41;100114.78;;;25.22;47.54
804;BME280;25687;49.976;8.240;2023-05-06T12:53:08;100109.09;;;25.33;49.07
804;BME280;25687;49.976;8.240;2023-05-06T12:55:36;100101.34;;;24.78;47.52
804;BME280;25687;49.976;8.240;2023-05-06T12:58:02;100110.72;;;24.26;49.21
804;BME280;25687;49.976;8.240;2023-05-06T13:00:28;100114.66;;;24.22;46.58
804;BME280;25687;49.976;8.240;2023-05-06T13:02:53;100105.59;;;24.01;45.71
804;BME280;25687;49.976;8.240;2023-05-06T13:05:19;100106.31;;;24.18;47.47
804;BME280;25687;49.976;8.240;2023-05-06T13:07:44;100103.81;;;24.48;47.27
804;BME280;25687;49.976;8.240;2023-05-06T13:10:09;100099.59;;;24.47;50.92
804;BME280;25687;49.976;8.240;2023-05-06T13:12:35;100103.38;;;23.74;50.22
804;BME280;25687;49.976;8.240;2023-05-06T13:15:01;100104.47;;;23.23;54.22
804;BME280;25687;49.976;8.240;2023-05-06T13:17:26;100103.50;;;22.66;53.74